Time,TemperatureF,DewpointF,PressureIn,WindDirection,WindDirectionDegrees,WindSpeedMPH,WindSpeedGustMPH,Humidity,HourlyPrecipIn,Conditions,Clouds,dailyrainin,SoftwareType,DateUTC
2013-04-16 00:02:00,31.3,29.0,30.00,West,278,5.0,11.0,91,0.00,,OVC018,0.00,VWS V14.00,2013-04-16 05:02:00,
2013-04-16 00:07:00,31.3,28.7,30.00,WNW,283,3.0,11.0,90,0.00,,OVC018,0.00,VWS V14.00,2013-04-16 05:07:00,
2013-04-16 00:12:00,31.2,28.6,30.00,WNW,296,9.0,11.0,90,0.00,,OVC018,0.00,VWS V14.00,2013-04-16 05:12:00,
2013-04-16 00:17:00,31.1,28.5,30.00,WNW,283,10.0,11.0,90,0.00,,OVC018,0.00,VWS V14.00,2013-04-16 05:17:00,
2013-04-16 00:22:00,31.1,28.5,30.00,WNW,284,6.0,13.0,90,0.00,,OVC018,0.00,VWS V14.00,2013-04-16 05:22:00,
2013-04-16 00:27:00,30.9,28.0,30.00,WNW,295,2.0,13.0,89,0.00,,OVC018,0.00,VWS V14.00,2013-04-16 05:27:00,
2013-04-16 00:32:00,30.8,28.2,30.00,WNW,302,6.0,14.0,90,0.00,,OVC018,0.00,VWS V14.00,2013-04-16 05:32:00,
2013-04-16 00:37:00,30.7,28.1,30.01,WNW,287,13.0,16.0,90,0.00,,OVC018,0.00,VWS V14.00,2013-04-16 05:37:00,
2013-04-16 00:42:00,30.6,27.8,30.00,WNW,291,6.0,11.0,89,0.00,,OVC018,0.00,VWS V14.00,2013-04-16 05:42:00,
2013-04-16 00:47:00,30.4,27.5,30.01,WNW,290,8.0,16.0,89,0.00,,OVC018,0.00,VWS V14.00,2013-04-16 05:47:00,
2013-04-16 00:52:00,30.2,27.4,30.01,WNW,289,7.0,13.0,89,0.00,,OVC018,0.00,VWS V14.00,2013-04-16 05:52:00,
2013-04-16 00:57:00,30.0,27.2,30.01,West,271,10.0,13.0,89,0.00,,OVC018,0.00,VWS V14.00,2013-04-16 05:57:00,
2013-04-16 01:02:00,29.8,26.7,30.01,WNW,297,7.0,13.0,88,0.00,,OVC016,0.00,VWS V14.00,2013-04-16 06:02:00,
2013-04-16 01:07:00,29.7,26.6,30.01,West,275,7.0,13.0,88,0.00,,OVC016,0.00,VWS V14.00,2013-04-16 06:07:00,
2013-04-16 01:12:00,29.5,26.4,30.02,West,277,7.0,12.0,88,0.00,,OVC016,0.00,VWS V14.00,2013-04-16 06:12:00,
2013-04-16 01:17:00,29.3,26.2,30.02,West,261,9.0,15.0,88,0.00,,OVC016,0.00,VWS V14.00,2013-04-16 06:17:00,
2013-04-16 01:22:00,29.1,26.0,30.02,West,277,7.0,12.0,88,0.00,,OVC016,0.00,VWS V14.00,2013-04-16 06:22:00,
2013-04-16 01:27:00,29.0,25.9,30.02,West,270,6.0,12.0,88,0.00,,OVC016,0.00,VWS V14.00,2013-04-16 06:27:00,
2013-04-16 01:32:00,28.9,25.5,30.02,WNW,287,6.0,14.0,87,0.00,,OVC016,0.00,VWS V14.00,2013-04-16 06:32:00,
2013-04-16 01:37:00,28.8,25.7,30.02,WNW,287,9.0,14.0,88,0.00,,OVC016,0.00,VWS V14.00,2013-04-16 06:37:00,
2013-04-16 01:42:00,28.7,25.3,30.02,WNW,291,4.0,14.0,87,0.00,,OVC016,0.00,VWS V14.00,2013-04-16 06:42:00,
2013-04-16 01:47:00,28.6,25.2,30.03,West,275,8.0,14.0,87,0.00,,OVC016,0.00,VWS V14.00,2013-04-16 06:47:00,
2013-04-16 01:52:00,28.5,25.1,30.03,WNW,285,5.0,13.0,87,0.00,,OVC016,0.00,VWS V14.00,2013-04-16 06:52:00,
2013-04-16 01:57:00,28.5,25.1,30.03,West,274,10.0,13.0,87,0.00,,OVC016,0.00,VWS V14.00,2013-04-16 06:57:00,
2013-04-16 02:02:00,28.4,25.0,30.03,West,281,6.0,13.0,87,0.00,,OVC018,0.00,VWS V14.00,2013-04-16 07:02:00,
2013-04-16 02:07:00,28.2,24.8,30.03,WNW,292,9.0,14.0,87,0.00,,OVC018,0.00,VWS V14.00,2013-04-16 07:07:00,
2013-04-16 02:12:00,28.1,24.7,30.02,WNW,285,2.0,10.0,87,0.00,,OVC018,0.00,VWS V14.00,2013-04-16 07:12:00,
2013-04-16 02:17:00,28.0,24.6,30.02,WNW,290,3.0,13.0,87,0.00,,OVC018,0.00,VWS V14.00,2013-04-16 07:17:00,
2013-04-16 02:22:00,28.0,24.6,30.02,WNW,291,0.0,9.0,87,0.00,,OVC018,0.00,VWS V14.00,2013-04-16 07:22:00,
2013-04-16 02:27:00,27.9,24.5,30.02,WNW,288,3.0,9.0,87,0.00,,OVC018,0.00,VWS V14.00,2013-04-16 07:27:00,
2013-04-16 02:32:00,27.8,24.4,30.02,WNW,287,0.0,5.0,87,0.00,,OVC018,0.00,VWS V14.00,2013-04-16 07:32:00,
2013-04-16 02:38:00,27.8,24.4,30.02,WNW,288,0.0,5.0,87,0.00,,OVC018,0.00,VWS V14.00,2013-04-16 07:38:00,
2013-04-16 02:43:00,27.7,24.3,30.02,WNW,287,7.0,8.0,87,0.00,,OVC018,0.00,VWS V14.00,2013-04-16 07:43:00,
2013-04-16 02:48:00,27.7,24.3,30.02,WNW,282,3.0,9.0,87,0.00,,OVC018,0.00,VWS V14.00,2013-04-16 07:48:00,
2013-04-16 02:53:00,27.7,24.3,30.03,West,279,3.0,8.0,87,0.00,,OVC018,0.00,VWS V14.00,2013-04-16 07:53:00,
2013-04-16 02:58:00,27.6,24.2,30.02,WNW,285,5.0,10.0,87,0.00,,OVC018,0.00,VWS V14.00,2013-04-16 07:58:00,
2013-04-16 03:03:00,27.6,24.2,30.02,NW,317,5.0,12.0,87,0.00,,OVC018,0.00,VWS V14.00,2013-04-16 08:03:00,
2013-04-16 03:08:00,27.6,24.2,30.03,WNW,295,0.0,12.0,87,0.00,,OVC018,0.00,VWS V14.00,2013-04-16 08:08:00,
2013-04-16 03:13:00,27.7,24.3,30.03,WNW,295,5.0,10.0,87,0.00,,OVC018,0.00,VWS V14.00,2013-04-16 08:13:00,
2013-04-16 03:18:00,27.7,24.3,30.03,WNW,284,7.0,10.0,87,0.00,,OVC018,0.00,VWS V14.00,2013-04-16 08:18:00,
2013-04-16 03:23:00,27.7,24.3,30.03,West,280,5.0,11.0,87,0.00,,OVC018,0.00,VWS V14.00,2013-04-16 08:23:00,
2013-04-16 03:28:00,27.7,24.3,30.03,WNW,297,3.0,11.0,87,0.00,,OVC018,0.00,VWS V14.00,2013-04-16 08:28:00,
2013-04-16 03:33:00,27.7,24.3,30.03,WNW,290,4.0,8.0,87,0.00,,OVC018,0.00,VWS V14.00,2013-04-16 08:33:00,
2013-04-16 03:38:00,27.7,24.3,30.04,WNW,286,7.0,9.0,87,0.00,,OVC018,0.00,VWS V14.00,2013-04-16 08:38:00,
2013-04-16 03:43:00,27.7,24.3,30.04,WNW,288,3.0,11.0,87,0.00,,OVC018,0.00,VWS V14.00,2013-04-16 08:43:00,
2013-04-16 03:48:00,27.7,24.3,30.04,WNW,295,8.0,11.0,87,0.00,,OVC018,0.00,VWS V14.00,2013-04-16 08:48:00,
2013-04-16 03:53:00,27.6,24.2,30.05,WNW,282,5.0,7.0,87,0.00,,OVC018,0.00,VWS V14.00,2013-04-16 08:53:00,
2013-04-16 03:58:00,27.6,24.2,30.05,WNW,284,8.0,10.0,87,0.00,,OVC018,0.00,VWS V14.00,2013-04-16 08:58:00,
2013-04-16 04:03:00,27.6,24.2,30.06,WNW,284,7.0,10.0,87,0.00,,OVC029,0.00,VWS V14.00,2013-04-16 09:03:00,
2013-04-16 04:08:00,27.5,24.1,30.06,WNW,286,5.0,11.0,87,0.00,,OVC029,0.00,VWS V14.00,2013-04-16 09:08:00,
2013-04-16 04:13:00,27.5,23.9,30.07,West,275,6.0,9.0,86,0.00,,OVC029,0.00,VWS V14.00,2013-04-16 09:13:00,
2013-04-16 04:18:00,27.4,24.0,30.07,West,266,7.0,9.0,87,0.00,,OVC029,0.00,VWS V14.00,2013-04-16 09:18:00,
2013-04-16 04:23:00,27.4,24.0,30.07,WSW,256,9.0,12.0,87,0.00,,OVC029,0.00,VWS V14.00,2013-04-16 09:23:00,
2013-04-16 04:28:00,27.3,24.0,30.08,WNW,282,5.0,12.0,87,0.00,,OVC033,0.00,VWS V14.00,2013-04-16 09:28:00,
2013-04-16 04:33:00,27.3,24.0,30.08,West,278,7.0,10.0,87,0.00,,OVC033,0.00,VWS V14.00,2013-04-16 09:33:00,
2013-04-16 04:38:00,27.2,23.6,30.08,WNW,283,4.0,10.0,86,0.00,,OVC033,0.00,VWS V14.00,2013-04-16 09:38:00,
2013-04-16 04:43:00,27.0,23.4,30.08,West,281,2.0,7.0,86,0.00,,OVC033,0.00,VWS V14.00,2013-04-16 09:43:00,
2013-04-16 04:48:00,26.6,23.0,30.08,West,278,5.0,7.0,86,0.00,,OVC033,0.00,VWS V14.00,2013-04-16 09:48:00,
2013-04-16 04:53:00,26.4,22.8,30.09,WSW,255,3.0,10.0,86,0.00,,OVC033,0.00,VWS V14.00,2013-04-16 09:53:00,
2013-04-16 04:58:00,26.2,22.6,30.09,WNW,284,4.0,10.0,86,0.00,,OVC033,0.00,VWS V14.00,2013-04-16 09:58:00,
2013-04-16 05:03:00,25.9,22.3,30.08,West,268,4.0,8.0,86,0.00,,BKN045,0.00,VWS V14.00,2013-04-16 10:03:00,
2013-04-16 05:08:00,25.7,22.1,30.09,West,267,5.0,8.0,86,0.00,,BKN045,0.00,VWS V14.00,2013-04-16 10:08:00,
2013-04-16 05:13:00,25.6,22.0,30.09,WNW,284,4.0,7.0,86,0.00,,BKN045,0.00,VWS V14.00,2013-04-16 10:13:00,
2013-04-16 05:18:00,25.5,21.9,30.09,West,277,7.0,9.0,86,0.00,,BKN045,0.00,VWS V14.00,2013-04-16 10:18:00,
2013-04-16 05:23:00,25.5,22.2,30.09,WNW,293,7.0,8.0,87,0.00,,OVC019,0.00,VWS V14.00,2013-04-16 10:23:00,
2013-04-16 05:28:00,25.5,21.9,30.08,West,267,8.0,8.0,86,0.00,,OVC019,0.00,VWS V14.00,2013-04-16 10:28:00,
2013-04-16 05:33:00,25.5,21.9,30.09,West,269,3.0,10.0,86,0.00,,OVC019,0.00,VWS V14.00,2013-04-16 10:33:00,
2013-04-16 05:38:00,25.5,21.9,30.10,West,270,4.0,10.0,86,0.00,,OVC019,0.00,VWS V14.00,2013-04-16 10:38:00,
2013-04-16 05:43:00,25.5,21.9,30.10,West,268,8.0,8.0,86,0.00,,OVC019,0.00,VWS V14.00,2013-04-16 10:43:00,
2013-04-16 05:48:00,25.5,21.9,30.10,West,268,3.0,9.0,86,0.00,,OVC015,0.00,VWS V14.00,2013-04-16 10:48:00,
2013-04-16 05:53:00,25.4,21.8,30.10,WNW,282,1.0,8.0,86,0.00,,OVC015,0.00,VWS V14.00,2013-04-16 10:53:00,
2013-04-16 05:58:00,25.3,22.0,30.11,West,266,7.0,8.0,87,0.00,,OVC015,0.00,VWS V14.00,2013-04-16 10:58:00,
2013-04-16 06:03:00,25.4,21.8,30.11,West,264,4.0,9.0,86,0.00,,OVC018,0.00,VWS V14.00,2013-04-16 11:03:00,
2013-04-16 06:08:00,25.4,21.8,30.11,West,260,5.0,10.0,86,0.00,,OVC018,0.00,VWS V14.00,2013-04-16 11:08:00,
2013-04-16 06:13:00,25.4,21.8,30.11,WNW,287,5.0,8.0,86,0.00,,OVC018,0.00,VWS V14.00,2013-04-16 11:13:00,
2013-04-16 06:18:00,25.4,22.1,30.11,West,275,7.0,8.0,87,0.00,,OVC018,0.00,VWS V14.00,2013-04-16 11:18:00,
2013-04-16 06:23:00,25.3,21.7,30.11,WNW,283,10.0,10.0,86,0.00,,OVC018,0.00,VWS V14.00,2013-04-16 11:23:00,
2013-04-16 06:28:00,25.3,21.7,30.11,West,276,8.0,10.0,86,0.00,,OVC018,0.00,VWS V14.00,2013-04-16 11:28:00,
2013-04-16 06:33:00,25.3,22.0,30.12,West,274,7.0,10.0,87,0.00,,OVC016,0.00,VWS V14.00,2013-04-16 11:33:00,
2013-04-16 06:38:00,25.3,22.0,30.12,West,277,5.0,10.0,87,0.00,,OVC016,0.00,VWS V14.00,2013-04-16 11:38:00,
2013-04-16 06:43:00,25.3,22.0,30.12,West,270,5.0,11.0,87,0.00,,OVC016,0.00,VWS V14.00,2013-04-16 11:43:00,
2013-04-16 06:48:00,25.2,21.6,30.13,West,274,3.0,11.0,86,0.00,,OVC016,0.00,VWS V14.00,2013-04-16 11:48:00,
2013-04-16 06:53:00,25.2,21.6,30.13,West,281,8.0,10.0,86,0.00,,OVC016,0.00,VWS V14.00,2013-04-16 11:53:00,
2013-04-16 06:58:00,25.1,21.8,30.13,WNW,289,3.0,10.0,87,0.00,,OVC016,0.00,VWS V14.00,2013-04-16 11:58:00,
2013-04-16 07:03:00,25.2,21.6,30.13,West,271,3.0,9.0,86,0.00,,OVC020,0.00,VWS V14.00,2013-04-16 12:03:00,
2013-04-16 07:08:00,25.2,21.9,30.13,West,280,0.0,9.0,87,0.00,,OVC020,0.00,VWS V14.00,2013-04-16 12:08:00,
2013-04-16 07:13:00,25.2,21.9,30.13,WNW,291,5.0,8.0,87,0.00,,OVC020,0.00,VWS V14.00,2013-04-16 12:13:00,
2013-04-16 07:18:00,25.2,21.9,30.13,West,275,7.0,9.0,87,0.00,,OVC020,0.00,VWS V14.00,2013-04-16 12:18:00,
2013-04-16 07:23:00,25.3,22.0,30.14,WNW,292,0.0,7.0,87,0.00,,OVC020,0.00,VWS V14.00,2013-04-16 12:23:00,
2013-04-16 07:28:00,25.4,22.1,30.14,WNW,285,5.0,8.0,87,0.00,,OVC020,0.00,VWS V14.00,2013-04-16 12:28:00,
2013-04-16 07:33:00,25.6,22.3,30.14,WNW,285,0.0,7.0,87,0.00,,OVC020,0.00,VWS V14.00,2013-04-16 12:33:00,
2013-04-16 07:38:00,25.8,22.5,30.14,WNW,289,3.0,8.0,87,0.00,,OVC020,0.00,VWS V14.00,2013-04-16 12:38:00,
2013-04-16 07:43:00,26.0,22.7,30.15,West,281,1.0,7.0,87,0.00,,OVC020,0.00,VWS V14.00,2013-04-16 12:43:00,
2013-04-16 07:48:00,26.4,23.3,30.15,West,278,4.0,7.0,88,0.00,,OVC020,0.00,VWS V14.00,2013-04-16 12:48:00,
2013-04-16 07:54:00,26.7,23.6,30.16,West,270,1.0,7.0,88,0.00,,OVC020,0.00,VWS V14.00,2013-04-16 12:54:00,
2013-04-16 07:59:00,26.9,23.6,30.17,West,274,2.0,7.0,87,0.00,,OVC020,0.00,VWS V14.00,2013-04-16 12:59:00,
2013-04-16 08:03:00,27.1,24.0,30.17,West,266,0.0,8.0,88,0.00,,OVC016,0.00,VWS V14.00,2013-04-16 13:03:00,
2013-04-16 08:08:00,27.4,24.0,30.17,WNW,284,0.0,9.0,87,0.00,,OVC016,0.00,VWS V14.00,2013-04-16 13:08:00,
2013-04-16 08:13:00,27.7,24.6,30.17,WNW,286,4.0,8.0,88,0.00,,OVC016,0.00,VWS V14.00,2013-04-16 13:13:00,
2013-04-16 08:19:00,27.9,24.5,30.17,WNW,293,2.0,8.0,87,0.00,,OVC016,0.00,VWS V14.00,2013-04-16 13:19:00,
2013-04-16 08:24:00,28.0,24.6,30.17,NW,304,0.0,10.0,87,0.00,,OVC016,0.00,VWS V14.00,2013-04-16 13:24:00,
2013-04-16 08:29:00,28.2,24.8,30.18,WNW,286,2.0,10.0,87,0.00,,OVC016,0.00,VWS V14.00,2013-04-16 13:29:00,
2013-04-16 08:34:00,28.3,24.9,30.18,WNW,287,8.0,9.0,87,0.00,,OVC016,0.00,VWS V14.00,2013-04-16 13:34:00,
2013-04-16 08:39:00,28.3,24.7,30.18,West,278,3.0,9.0,86,0.00,,OVC016,0.00,VWS V14.00,2013-04-16 13:39:00,
2013-04-16 08:44:00,28.4,24.8,30.17,NW,304,3.0,6.0,86,0.00,,OVC016,0.00,VWS V14.00,2013-04-16 13:44:00,
2013-04-16 08:49:00,28.6,25.0,30.17,WNW,288,7.0,8.0,86,0.00,,OVC016,0.00,VWS V14.00,2013-04-16 13:49:00,
2013-04-16 08:54:00,28.6,25.0,30.18,WNW,282,4.0,7.0,86,0.00,,OVC016,0.00,VWS V14.00,2013-04-16 13:54:00,
2013-04-16 08:59:00,28.7,24.8,30.17,West,278,4.0,7.0,85,0.00,,OVC016,0.00,VWS V14.00,2013-04-16 13:59:00,
2013-04-16 09:04:00,28.8,24.9,30.17,West,281,0.0,5.0,85,0.00,,OVC020,0.00,VWS V14.00,2013-04-16 14:04:00,
2013-04-16 09:09:00,29.0,25.1,30.18,West,280,0.0,7.0,85,0.00,,OVC020,0.00,VWS V14.00,2013-04-16 14:09:00,
2013-04-16 09:14:00,29.3,25.4,30.18,West,278,0.0,0.0,85,0.00,,OVC020,0.00,VWS V14.00,2013-04-16 14:14:00,
2013-04-16 09:19:00,29.5,25.6,30.18,West,281,0.0,8.0,85,0.00,,OVC020,0.00,VWS V14.00,2013-04-16 14:19:00,
2013-04-16 09:24:00,29.5,25.3,30.19,West,274,1.0,8.0,84,0.00,,OVC020,0.00,VWS V14.00,2013-04-16 14:24:00,
2013-04-16 09:29:00,29.8,25.6,30.20,WNW,293,6.0,8.0,84,0.00,,OVC020,0.00,VWS V14.00,2013-04-16 14:29:00,
2013-04-16 09:34:00,29.8,25.3,30.19,West,281,1.0,9.0,83,0.00,,OVC020,0.00,VWS V14.00,2013-04-16 14:34:00,
2013-04-16 09:39:00,29.8,25.3,30.20,West,261,5.0,9.0,83,0.00,,OVC020,0.00,VWS V14.00,2013-04-16 14:39:00,
2013-04-16 09:44:00,29.8,25.3,30.20,West,265,6.0,9.0,83,0.00,,OVC020,0.00,VWS V14.00,2013-04-16 14:44:00,
2013-04-16 09:49:00,29.7,24.9,30.20,West,272,4.0,9.0,82,0.00,,OVC020,0.00,VWS V14.00,2013-04-16 14:49:00,
2013-04-16 09:54:00,29.8,25.3,30.20,WNW,298,3.0,9.0,83,0.00,,OVC020,0.00,VWS V14.00,2013-04-16 14:54:00,
2013-04-16 09:59:00,30.1,25.6,30.21,West,279,7.0,9.0,83,0.00,,OVC036,0.00,VWS V14.00,2013-04-16 14:59:00,
2013-04-16 10:04:00,30.2,25.7,30.21,WNW,292,5.0,8.0,83,0.00,,OVC022,0.00,VWS V14.00,2013-04-16 15:04:00,
2013-04-16 10:09:00,30.3,25.5,30.21,West,280,0.0,8.0,82,0.00,,OVC022,0.00,VWS V14.00,2013-04-16 15:09:00,
2013-04-16 10:14:00,30.5,25.7,30.21,WNW,286,0.0,8.0,82,0.00,,OVC022,0.00,VWS V14.00,2013-04-16 15:14:00,
2013-04-16 10:19:00,30.6,26.1,30.21,WNW,286,0.0,8.0,83,0.00,,OVC022,0.00,VWS V14.00,2013-04-16 15:19:00,
2013-04-16 10:24:00,30.8,26.3,30.22,West,277,0.0,7.0,83,0.00,,OVC022,0.00,VWS V14.00,2013-04-16 15:24:00,
2013-04-16 10:29:00,30.9,26.4,30.22,West,278,2.0,7.0,83,0.00,,OVC022,0.00,VWS V14.00,2013-04-16 15:29:00,
2013-04-16 10:34:00,30.9,26.1,30.22,WNW,282,0.0,6.0,82,0.00,,OVC022,0.00,VWS V14.00,2013-04-16 15:34:00,
2013-04-16 10:39:00,31.0,26.5,30.23,WNW,292,6.0,6.0,83,0.00,,OVC022,0.00,VWS V14.00,2013-04-16 15:39:00,
2013-04-16 10:44:00,31.4,26.8,30.23,WNW,293,7.0,7.0,83,0.00,,OVC022,0.00,VWS V14.00,2013-04-16 15:44:00,
2013-04-16 10:49:00,31.9,27.3,30.23,WNW,292,0.0,8.0,83,0.00,,OVC022,0.00,VWS V14.00,2013-04-16 15:49:00,
2013-04-16 10:54:00,32.5,27.9,30.23,WNW,287,8.0,9.0,83,0.00,,OVC022,0.00,VWS V14.00,2013-04-16 15:54:00,
2013-04-16 10:59:00,32.8,27.9,30.22,WNW,292,0.0,9.0,82,0.00,,OVC022,0.00,VWS V14.00,2013-04-16 15:59:00,
2013-04-16 11:04:00,33.2,28.3,30.23,NW,315,7.0,7.0,82,0.00,,OVC019,0.00,VWS V14.00,2013-04-16 16:04:00,
2013-04-16 11:09:00,33.8,28.9,30.23,NW,304,5.0,7.0,82,0.00,,OVC019,0.00,VWS V14.00,2013-04-16 16:09:00,
2013-04-16 11:14:00,34.6,29.4,30.22,NW,323,2.0,6.0,81,0.00,,OVC019,0.00,VWS V14.00,2013-04-16 16:14:00,
2013-04-16 11:19:00,34.9,29.4,30.22,NW,315,0.0,7.0,80,0.00,,OVC019,0.00,VWS V14.00,2013-04-16 16:19:00,
2013-04-16 11:24:00,35.0,29.5,30.23,North,353,3.0,10.0,80,0.00,,OVC019,0.00,VWS V14.00,2013-04-16 16:24:00,
2013-04-16 11:29:00,35.6,29.7,30.23,North,1,7.0,10.0,79,0.00,,OVC019,0.00,VWS V14.00,2013-04-16 16:29:00,
2013-04-16 11:34:00,36.2,30.3,30.23,North,351,6.0,8.0,79,0.00,,OVC019,0.00,VWS V14.00,2013-04-16 16:34:00,
2013-04-16 11:39:00,36.7,30.5,30.23,North,354,6.0,10.0,78,0.00,,OVC019,0.00,VWS V14.00,2013-04-16 16:39:00,
2013-04-16 11:44:00,37.6,30.7,30.23,North,355,0.0,8.0,76,0.00,,OVC019,0.00,VWS V14.00,2013-04-16 16:44:00,
2013-04-16 11:49:00,37.8,30.6,30.24,North,359,1.0,8.0,75,0.00,,OVC019,0.00,VWS V14.00,2013-04-16 16:49:00,
2013-04-16 11:54:00,37.7,30.5,30.23,North,0,1.0,9.0,75,0.00,,OVC019,0.00,VWS V14.00,2013-04-16 16:54:00,
2013-04-16 11:59:00,38.2,30.7,30.23,North,353,0.0,9.0,74,0.00,,OVC019,0.00,VWS V14.00,2013-04-16 16:59:00,
2013-04-16 12:04:00,38.3,30.1,30.24,North,0,6.0,10.0,72,0.00,,OVC045,0.00,VWS V14.00,2013-04-16 17:04:00,
2013-04-16 12:09:00,37.8,29.6,30.24,North,0,8.0,11.0,72,0.00,,BKN047,0.00,VWS V14.00,2013-04-16 17:09:00,
2013-04-16 12:14:00,37.4,29.9,30.25,North,357,7.0,11.0,74,0.00,,BKN047,0.00,VWS V14.00,2013-04-16 17:14:00,
2013-04-16 12:19:00,37.5,30.0,30.25,North,352,0.0,11.0,74,0.00,,BKN047,0.00,VWS V14.00,2013-04-16 17:19:00,
2013-04-16 12:24:00,37.3,30.1,30.25,North,352,0.0,0.0,75,0.00,,BKN047,0.00,VWS V14.00,2013-04-16 17:24:00,
2013-04-16 12:29:00,37.2,29.7,30.26,WNW,291,0.0,1.0,74,0.00,,BKN047,0.00,VWS V14.00,2013-04-16 17:29:00,
2013-04-16 12:34:00,37.3,29.8,30.26,NW,306,0.0,1.0,74,0.00,,BKN047,0.00,VWS V14.00,2013-04-16 17:34:00,
2013-04-16 12:39:00,37.2,30.0,30.26,NW,319,0.0,1.0,75,0.00,,BKN047,0.00,VWS V14.00,2013-04-16 17:39:00,
2013-04-16 12:44:00,37.1,29.9,30.26,NW,324,0.0,1.0,75,0.00,,BKN047,0.00,VWS V14.00,2013-04-16 17:44:00,
2013-04-16 12:49:00,36.9,29.4,30.26,NW,312,0.0,1.0,74,0.00,,BKN047,0.00,VWS V14.00,2013-04-16 17:49:00,
2013-04-16 12:54:00,36.6,29.4,30.26,NW,304,1.0,1.0,75,0.00,,BKN047,0.00,VWS V14.00,2013-04-16 17:54:00,
2013-04-16 12:59:00,36.3,29.1,30.26,NW,304,0.0,9.0,75,0.00,,BKN047,0.00,VWS V14.00,2013-04-16 17:59:00,
2013-04-16 13:04:00,36.3,29.1,30.26,NW,307,0.0,1.0,75,0.00,,BKN055,0.00,VWS V14.00,2013-04-16 18:04:00,
2013-04-16 13:09:00,36.4,29.2,30.26,NW,311,0.0,1.0,75,0.00,,BKN055,0.00,VWS V14.00,2013-04-16 18:09:00,
2013-04-16 13:14:00,36.5,29.0,30.26,NW,318,0.0,9.0,74,0.00,,BKN055,0.00,VWS V14.00,2013-04-16 18:14:00,
2013-04-16 13:19:00,36.7,29.2,30.26,NW,320,0.0,9.0,74,0.00,,BKN055,0.00,VWS V14.00,2013-04-16 18:19:00,
2013-04-16 13:24:00,37.1,29.6,30.26,NW,316,0.0,1.0,74,0.00,,BKN055,0.00,VWS V14.00,2013-04-16 18:24:00,
2013-04-16 13:29:00,37.5,30.0,30.26,NW,318,0.0,1.0,74,0.00,,BKN055,0.00,VWS V14.00,2013-04-16 18:29:00,
2013-04-16 13:35:00,37.5,30.0,30.26,North,351,0.0,1.0,74,0.00,,BKN055,0.00,VWS V14.00,2013-04-16 18:35:00,
2013-04-16 13:40:00,37.3,29.1,30.26,North,0,4.0,8.0,72,0.00,,BKN055,0.00,VWS V14.00,2013-04-16 18:40:00,
2013-04-16 13:45:00,37.0,29.5,30.26,North,0,0.0,8.0,74,0.00,,BKN055,0.00,VWS V14.00,2013-04-16 18:45:00,
2013-04-16 13:50:00,37.0,29.5,30.26,North,1,0.0,0.0,74,0.00,,BKN055,0.00,VWS V14.00,2013-04-16 18:50:00,
2013-04-16 13:55:00,37.0,29.5,30.26,North,0,0.0,1.0,74,0.00,,BKN055,0.00,VWS V14.00,2013-04-16 18:55:00,
2013-04-16 14:00:00,37.0,29.5,30.26,North,0,0.0,0.0,74,0.00,,BKN055,0.00,VWS V14.00,2013-04-16 19:00:00,
2013-04-16 14:05:00,36.9,29.4,30.26,North,0,0.0,1.0,74,0.00,,BKN050,0.00,VWS V14.00,2013-04-16 19:05:00,
2013-04-16 14:10:00,37.0,29.8,30.27,North,0,0.0,0.0,75,0.00,,BKN050,0.00,VWS V14.00,2013-04-16 19:10:00,
2013-04-16 14:15:00,37.1,29.9,30.27,North,0,0.0,1.0,75,0.00,,BKN050,0.00,VWS V14.00,2013-04-16 19:15:00,
2013-04-16 14:20:00,37.3,30.1,30.27,North,1,8.0,8.0,75,0.00,,OVC050,0.00,VWS V14.00,2013-04-16 19:20:00,
2013-04-16 14:25:00,37.1,29.6,30.27,North,359,0.0,9.0,74,0.00,,OVC050,0.00,VWS V14.00,2013-04-16 19:25:00,
2013-04-16 14:30:00,36.8,29.3,30.27,North,0,7.0,9.0,74,0.00,,OVC050,0.00,VWS V14.00,2013-04-16 19:30:00,
2013-04-16 14:35:00,36.4,29.2,30.27,North,1,7.0,9.0,75,0.00,,BKN050,0.00,VWS V14.00,2013-04-16 19:35:00,
2013-04-16 14:40:00,36.1,29.0,30.28,North,1,4.0,5.0,75,0.00,,BKN050,0.00,VWS V14.00,2013-04-16 19:40:00,
2013-04-16 14:45:00,36.0,28.9,30.28,North,2,7.0,9.0,75,0.00,,BKN050,0.00,VWS V14.00,2013-04-16 19:45:00,
2013-04-16 14:50:00,35.9,29.1,30.28,North,4,3.0,7.0,76,0.00,,BKN050,0.00,VWS V14.00,2013-04-16 19:50:00,
2013-04-16 14:55:00,36.0,29.2,30.28,North,4,0.0,7.0,76,0.00,,BKN050,0.00,VWS V14.00,2013-04-16 19:55:00,
2013-04-16 15:00:00,36.5,29.7,30.28,North,3,0.0,1.0,76,0.00,,BKN050,0.00,VWS V14.00,2013-04-16 20:00:00,
2013-04-16 15:05:00,36.7,29.9,30.28,North,5,0.0,1.0,76,0.00,,FEW029,0.00,VWS V14.00,2013-04-16 20:05:00,
2013-04-16 15:10:00,36.7,29.5,30.28,North,5,0.0,1.0,75,0.00,,FEW029,0.00,VWS V14.00,2013-04-16 20:10:00,
2013-04-16 15:15:00,36.5,29.3,30.28,North,7,0.0,1.0,75,0.00,,FEW029,0.00,VWS V14.00,2013-04-16 20:15:00,
2013-04-16 15:20:00,36.2,29.0,30.28,North,7,0.0,0.0,75,0.00,,FEW029,0.00,VWS V14.00,2013-04-16 20:20:00,
2013-04-16 15:25:00,36.1,29.3,30.28,North,7,8.0,8.0,76,0.00,,FEW029,0.00,VWS V14.00,2013-04-16 20:25:00,
2013-04-16 15:30:00,36.0,29.2,30.28,North,8,6.0,7.0,76,0.00,,FEW029,0.00,VWS V14.00,2013-04-16 20:30:00,
2013-04-16 15:35:00,36.0,29.2,30.28,North,3,8.0,10.0,76,0.00,,FEW029,0.00,VWS V14.00,2013-04-16 20:35:00,
2013-04-16 15:40:00,36.0,29.2,30.28,North,1,4.0,7.0,76,0.00,,FEW029,0.00,VWS V14.00,2013-04-16 20:40:00,
2013-04-16 15:45:00,36.2,29.4,30.28,North,1,6.0,10.0,76,0.00,,FEW029,0.00,VWS V14.00,2013-04-16 20:45:00,
2013-04-16 15:50:00,36.2,29.4,30.28,North,0,8.0,9.0,76,0.00,,FEW029,0.00,VWS V14.00,2013-04-16 20:50:00,
2013-04-16 15:55:00,36.2,29.4,30.29,North,1,5.0,10.0,76,0.00,,FEW029,0.00,VWS V14.00,2013-04-16 20:55:00,
2013-04-16 16:00:00,36.4,29.6,30.29,North,2,5.0,8.0,76,0.00,,FEW029,0.00,VWS V14.00,2013-04-16 21:00:00,
2013-04-16 16:05:00,36.5,29.3,30.29,North,1,0.0,8.0,75,0.00,,BKN027,0.00,VWS V14.00,2013-04-16 21:05:00,
2013-04-16 16:10:00,36.5,29.3,30.29,North,7,6.0,7.0,75,0.00,,BKN027,0.00,VWS V14.00,2013-04-16 21:10:00,
2013-04-16 16:15:00,36.9,30.0,30.29,North,4,1.0,8.0,76,0.00,,BKN027,0.00,VWS V14.00,2013-04-16 21:15:00,
2013-04-16 16:20:00,37.4,30.5,30.29,North,1,6.0,7.0,76,0.00,,BKN027,0.00,VWS V14.00,2013-04-16 21:20:00,
2013-04-16 16:25:00,37.5,30.0,30.29,North,1,0.0,7.0,74,0.00,,BKN027,0.00,VWS V14.00,2013-04-16 21:25:00,
2013-04-16 16:30:00,36.9,29.4,30.29,North,0,4.0,7.0,74,0.00,,BKN027,0.00,VWS V14.00,2013-04-16 21:30:00,
2013-04-16 16:35:00,36.5,29.3,30.29,North,0,0.0,7.0,75,0.00,,BKN027,0.00,VWS V14.00,2013-04-16 21:35:00,
2013-04-16 16:40:00,36.1,29.0,30.29,North,0,0.0,0.0,75,0.00,,BKN027,0.00,VWS V14.00,2013-04-16 21:40:00,
2013-04-16 16:45:00,35.9,29.1,30.29,North,0,0.0,1.0,76,0.00,,SCT048,0.00,VWS V14.00,2013-04-16 21:45:00,
2013-04-16 16:50:00,35.9,28.8,30.29,North,0,0.0,1.0,75,0.00,,SCT048,0.00,VWS V14.00,2013-04-16 21:50:00,
2013-04-16 16:55:00,35.8,29.0,30.29,North,0,0.0,1.0,76,0.00,,SCT048,0.00,VWS V14.00,2013-04-16 21:55:00,
2013-04-16 17:00:00,35.9,29.1,30.30,North,0,0.0,1.0,76,0.00,,SCT048,0.00,VWS V14.00,2013-04-16 22:00:00,
2013-04-16 17:05:00,35.9,29.1,30.30,North,0,0.0,1.0,76,0.00,,BKN050,0.00,VWS V14.00,2013-04-16 22:05:00,
2013-04-16 17:10:00,35.9,29.1,30.30,North,0,0.0,1.0,76,0.00,,BKN050,0.00,VWS V14.00,2013-04-16 22:10:00,
2013-04-16 17:15:00,35.9,29.4,30.30,North,0,0.0,1.0,77,0.00,,BKN050,0.00,VWS V14.00,2013-04-16 22:15:00,
2013-04-16 17:20:00,35.9,29.4,30.30,North,0,0.0,0.0,77,0.00,,BKN050,0.00,VWS V14.00,2013-04-16 22:20:00,
2013-04-16 17:25:00,35.9,29.4,30.31,North,0,1.0,1.0,77,0.00,,BKN050,0.00,VWS V14.00,2013-04-16 22:25:00,
2013-04-16 17:30:00,35.8,29.0,30.30,North,0,0.0,0.0,76,0.00,,BKN050,0.00,VWS V14.00,2013-04-16 22:30:00,
2013-04-16 17:35:00,35.7,28.9,30.31,North,0,0.0,1.0,76,0.00,,BKN050,0.00,VWS V14.00,2013-04-16 22:35:00,
2013-04-16 17:40:00,35.5,28.7,30.31,North,0,0.0,0.0,76,0.00,,BKN050,0.00,VWS V14.00,2013-04-16 22:40:00,
2013-04-16 17:45:00,35.4,28.6,30.31,North,0,0.0,1.0,76,0.00,,BKN050,0.00,VWS V14.00,2013-04-16 22:45:00,
2013-04-16 17:50:00,35.4,28.9,30.31,North,0,0.0,0.0,77,0.00,,BKN050,0.00,VWS V14.00,2013-04-16 22:50:00,
2013-04-16 17:55:00,35.3,28.8,30.31,North,0,0.0,1.0,77,0.00,,BKN050,0.00,VWS V14.00,2013-04-16 22:55:00,
2013-04-16 18:00:00,35.3,28.8,30.31,North,0,0.0,0.0,77,0.00,,BKN050,0.00,VWS V14.00,2013-04-16 23:00:00,
2013-04-16 18:05:00,35.3,28.8,30.31,North,0,0.0,0.0,77,0.00,,OVC048,0.00,VWS V14.00,2013-04-16 23:05:00,
2013-04-16 18:10:00,35.3,28.8,30.32,North,0,0.0,0.0,77,0.00,,OVC048,0.00,VWS V14.00,2013-04-16 23:10:00,
2013-04-16 18:15:00,35.1,28.6,30.32,North,0,0.0,1.0,77,0.00,,OVC048,0.00,VWS V14.00,2013-04-16 23:15:00,
2013-04-16 18:21:00,35.1,28.6,30.32,North,0,0.0,1.0,77,0.00,,OVC048,0.00,VWS V14.00,2013-04-16 23:21:00,
2013-04-16 18:26:00,35.2,28.7,30.32,North,0,0.0,1.0,77,0.00,,OVC048,0.00,VWS V14.00,2013-04-16 23:26:00,
2013-04-16 18:31:00,35.2,28.7,30.32,North,0,0.0,0.0,77,0.00,,OVC048,0.00,VWS V14.00,2013-04-16 23:31:00,
2013-04-16 18:36:00,35.1,28.6,30.32,North,0,0.0,0.0,77,0.00,,OVC048,0.00,VWS V14.00,2013-04-16 23:36:00,
2013-04-16 18:41:00,35.0,28.5,30.32,North,0,0.0,1.0,77,0.00,,OVC048,0.00,VWS V14.00,2013-04-16 23:41:00,
2013-04-16 18:46:00,34.9,28.1,30.32,North,0,0.0,1.0,76,0.00,,OVC048,0.00,VWS V14.00,2013-04-16 23:46:00,
2013-04-16 18:51:00,34.8,28.0,30.32,West,263,0.0,0.0,76,0.00,,OVC048,0.00,VWS V14.00,2013-04-16 23:51:00,
2013-04-16 18:56:00,34.9,28.1,30.32,North,0,0.0,1.0,76,0.00,,OVC048,0.00,VWS V14.00,2013-04-16 23:56:00,
2013-04-16 19:01:00,34.9,28.4,30.32,North,0,0.0,1.0,77,0.00,,OVC048,0.00,VWS V14.00,2013-04-17 00:01:00,
2013-04-16 19:06:00,34.8,29.0,30.32,North,0,0.0,1.0,79,0.00,,OVC048,0.00,VWS V14.00,2013-04-17 00:06:00,
2013-04-16 19:11:00,34.8,29.0,30.32,North,0,0.0,0.0,79,0.00,,OVC048,0.00,VWS V14.00,2013-04-17 00:11:00,
2013-04-16 19:17:00,34.7,29.2,30.32,North,0,0.0,0.0,80,0.00,,OVC048,0.00,VWS V14.00,2013-04-17 00:17:00,
2013-04-16 19:22:00,34.5,29.0,30.32,North,0,0.0,0.0,80,0.00,,OVC048,0.00,VWS V14.00,2013-04-17 00:22:00,
2013-04-16 19:27:00,34.4,29.2,30.33,North,0,0.0,0.0,81,0.00,,OVC048,0.00,VWS V14.00,2013-04-17 00:27:00,
2013-04-16 19:32:00,34.2,29.0,30.32,North,0,0.0,0.0,81,0.00,,OVC048,0.00,VWS V14.00,2013-04-17 00:32:00,
2013-04-16 19:37:00,34.1,28.9,30.33,North,0,0.0,0.0,81,0.00,,OVC048,0.00,VWS V14.00,2013-04-17 00:37:00,
2013-04-16 19:42:00,34.0,28.8,30.33,North,0,0.0,0.0,81,0.00,,OVC048,0.00,VWS V14.00,2013-04-17 00:42:00,
2013-04-16 19:47:00,33.8,28.9,30.33,North,0,0.0,0.0,82,0.00,,OVC048,0.00,VWS V14.00,2013-04-17 00:47:00,
2013-04-16 19:52:00,33.6,28.7,30.33,North,357,0.0,0.0,82,0.00,,OVC048,0.00,VWS V14.00,2013-04-17 00:52:00,
2013-04-16 19:57:00,33.4,28.5,30.34,North,357,0.0,0.0,82,0.00,,OVC048,0.00,VWS V14.00,2013-04-17 00:57:00,
2013-04-16 20:02:00,33.1,28.2,30.34,North,357,0.0,0.0,82,0.00,,CLR,0.00,VWS V14.00,2013-04-17 01:02:00,
2013-04-16 20:07:00,32.8,28.2,30.34,North,357,0.0,0.0,83,0.00,,CLR,0.00,VWS V14.00,2013-04-17 01:07:00,
2013-04-16 20:12:00,32.5,27.9,30.34,North,358,0.0,0.0,83,0.00,,CLR,0.00,VWS V14.00,2013-04-17 01:12:00,
2013-04-16 20:17:00,32.2,27.9,30.34,North,358,0.0,0.0,84,0.00,,CLR,0.00,VWS V14.00,2013-04-17 01:17:00,
2013-04-16 20:22:00,32.0,27.7,30.34,North,358,0.0,0.0,84,0.00,,CLR,0.00,VWS V14.00,2013-04-17 01:22:00,
2013-04-16 20:27:00,31.7,27.4,30.34,North,358,0.0,0.0,84,0.00,,CLR,0.00,VWS V14.00,2013-04-17 01:27:00,
2013-04-16 20:32:00,31.5,27.5,30.34,North,358,0.0,0.0,85,0.00,,CLR,0.00,VWS V14.00,2013-04-17 01:32:00,
2013-04-16 20:37:00,31.3,27.3,30.35,North,359,0.0,0.0,85,0.00,,CLR,0.00,VWS V14.00,2013-04-17 01:37:00,
2013-04-16 20:42:00,31.2,27.2,30.35,North,359,0.0,0.0,85,0.00,,CLR,0.00,VWS V14.00,2013-04-17 01:42:00,
2013-04-16 20:47:00,31.2,27.5,30.35,North,358,0.0,0.0,86,0.00,,CLR,0.00,VWS V14.00,2013-04-17 01:47:00,
2013-04-16 20:52:00,31.1,27.4,30.35,North,358,0.0,0.0,86,0.00,,CLR,0.00,VWS V14.00,2013-04-17 01:52:00,
2013-04-16 20:57:00,31.1,27.4,30.35,North,359,0.0,0.0,86,0.00,,CLR,0.00,VWS V14.00,2013-04-17 01:57:00,
2013-04-16 21:02:00,31.1,27.4,30.34,North,359,0.0,0.0,86,0.00,,CLR,0.00,VWS V14.00,2013-04-17 02:02:00,
2013-04-16 21:07:00,31.2,27.8,30.34,North,0,0.0,0.0,87,0.00,,CLR,0.00,VWS V14.00,2013-04-17 02:07:00,
2013-04-16 21:12:00,31.2,27.8,30.34,North,0,0.0,0.0,87,0.00,,CLR,0.00,VWS V14.00,2013-04-17 02:12:00,
2013-04-16 21:17:00,31.1,27.7,30.35,North,0,0.0,0.0,87,0.00,,CLR,0.00,VWS V14.00,2013-04-17 02:17:00,
2013-04-16 21:22:00,31.0,27.3,30.35,North,0,0.0,0.0,86,0.00,,CLR,0.00,VWS V14.00,2013-04-17 02:22:00,
2013-04-16 21:27:00,31.0,27.6,30.35,North,0,0.0,0.0,87,0.00,,CLR,0.00,VWS V14.00,2013-04-17 02:27:00,
2013-04-16 21:32:00,30.9,27.5,30.36,North,0,0.0,0.0,87,0.00,,CLR,0.00,VWS V14.00,2013-04-17 02:32:00,
2013-04-16 21:37:00,30.7,27.3,30.35,North,0,0.0,0.0,87,0.00,,CLR,0.00,VWS V14.00,2013-04-17 02:37:00,
2013-04-16 21:42:00,30.6,27.2,30.36,North,0,0.0,0.0,87,0.00,,CLR,0.00,VWS V14.00,2013-04-17 02:42:00,
2013-04-16 21:47:00,30.4,27.0,30.36,North,0,0.0,0.0,87,0.00,,CLR,0.00,VWS V14.00,2013-04-17 02:47:00,
2013-04-16 21:52:00,30.3,26.9,30.36,North,0,0.0,0.0,87,0.00,,CLR,0.00,VWS V14.00,2013-04-17 02:52:00,
2013-04-16 21:57:00,30.2,26.8,30.36,North,0,0.0,0.0,87,0.00,,CLR,0.00,VWS V14.00,2013-04-17 02:57:00,
2013-04-16 22:03:00,30.1,26.7,30.36,North,0,0.0,0.0,87,0.00,,CLR,0.00,VWS V14.00,2013-04-17 03:03:00,
2013-04-16 22:08:00,30.2,27.1,30.36,North,0,0.0,0.0,88,0.00,,CLR,0.00,VWS V14.00,2013-04-17 03:08:00,
2013-04-16 22:13:00,30.3,27.2,30.36,North,0,0.0,0.0,88,0.00,,CLR,0.00,VWS V14.00,2013-04-17 03:13:00,
2013-04-16 22:18:00,30.5,27.4,30.36,North,0,0.0,0.0,88,0.00,,CLR,0.00,VWS V14.00,2013-04-17 03:18:00,
2013-04-16 22:23:00,30.6,27.5,30.36,North,0,0.0,0.0,88,0.00,,CLR,0.00,VWS V14.00,2013-04-17 03:23:00,
2013-04-16 22:28:00,30.7,27.6,30.36,North,0,0.0,0.0,88,0.00,,CLR,0.00,VWS V14.00,2013-04-17 03:28:00,
2013-04-16 22:33:00,30.9,28.0,30.36,North,0,0.0,0.0,89,0.00,,CLR,0.00,VWS V14.00,2013-04-17 03:33:00,
2013-04-16 22:38:00,30.9,27.8,30.37,North,0,0.0,0.0,88,0.00,,CLR,0.00,VWS V14.00,2013-04-17 03:38:00,
2013-04-16 22:43:00,30.9,27.8,30.36,North,0,0.0,0.0,88,0.00,,CLR,0.00,VWS V14.00,2013-04-17 03:43:00,
2013-04-16 22:48:00,31.0,27.9,30.36,North,0,0.0,0.0,88,0.00,,CLR,0.00,VWS V14.00,2013-04-17 03:48:00,
2013-04-16 22:53:00,31.1,28.2,30.36,North,0,0.0,0.0,89,0.00,,CLR,0.00,VWS V14.00,2013-04-17 03:53:00,
2013-04-16 22:58:00,31.1,28.0,30.36,North,0,0.0,0.0,88,0.00,,CLR,0.00,VWS V14.00,2013-04-17 03:58:00,
2013-04-16 23:00:00,31.1,28.2,30.36,North,0,0.0,0.0,89,0.00,,CLR,0.00,VWS V14.00,2013-04-17 04:00:00,
2013-04-16 23:05:00,31.2,28.3,30.36,North,0,0.0,0.0,89,0.00,,OVC041,0.00,VWS V14.00,2013-04-17 04:05:00,
2013-04-16 23:10:00,31.1,28.0,30.36,North,0,0.0,0.0,88,0.00,,OVC041,0.00,VWS V14.00,2013-04-17 04:10:00,
2013-04-16 23:15:00,31.1,28.2,30.36,North,0,0.0,0.0,89,0.00,,OVC041,0.00,VWS V14.00,2013-04-17 04:15:00,
2013-04-16 23:20:00,31.1,28.0,30.36,North,0,0.0,0.0,88,0.00,,OVC041,0.00,VWS V14.00,2013-04-17 04:20:00,
2013-04-16 23:25:00,31.0,27.9,30.36,North,0,0.0,0.0,88,0.00,,OVC041,0.00,VWS V14.00,2013-04-17 04:25:00,
2013-04-16 23:30:00,30.9,27.8,30.36,North,0,0.0,0.0,88,0.00,,OVC041,0.00,VWS V14.00,2013-04-17 04:30:00,
2013-04-16 23:35:00,30.9,27.8,30.36,North,0,0.0,0.0,88,0.00,,OVC041,0.00,VWS V14.00,2013-04-17 04:35:00,
2013-04-16 23:40:00,30.8,27.7,30.37,North,0,0.0,0.0,88,0.00,,OVC041,0.00,VWS V14.00,2013-04-17 04:40:00,
2013-04-16 23:46:00,30.9,28.0,30.36,North,0,0.0,0.0,89,0.00,,OVC041,0.00,VWS V14.00,2013-04-17 04:46:00,
2013-04-16 23:51:00,30.9,28.0,30.36,North,0,0.0,0.0,89,0.00,,OVC041,0.00,VWS V14.00,2013-04-17 04:51:00,
2013-04-16 23:56:00,30.9,28.0,30.36,North,0,0.0,0.0,89,0.00,,OVC041,0.00,VWS V14.00,2013-04-17 04:56:00,